createdAt,value
2019-02-18T00:01:48.048Z,12.10
2019-02-18T00:04:16.980Z,11.67
2019-02-18T00:06:45.819Z,9.20
2019-02-18T00:09:14.752Z,8.60
2019-02-18T00:11:44.106Z,9.53
2019-02-18T00:14:13.191Z,10.70
2019-02-18T00:16:42.631Z,10.27
2019-02-18T00:19:11.994Z,8.77
2019-02-18T00:21:41.213Z,10.77
2019-02-18T00:24:10.183Z,7.73
2019-02-18T00:26:39.365Z,8.53
2019-02-18T00:29:08.788Z,8.07
2019-02-18T00:31:37.656Z,10.67
2019-02-18T00:34:06.827Z,8.67
2019-02-18T00:36:35.919Z,9.27
2019-02-18T00:39:06.202Z,10.23
2019-02-18T00:41:35.174Z,9.90
2019-02-18T00:44:04.187Z,10.37
2019-02-18T00:46:33.158Z,9.70
2019-02-18T00:49:02.321Z,9.93
2019-02-18T00:51:31.447Z,11.23
2019-02-18T00:54:00.862Z,10.77
2019-02-18T00:56:30.102Z,9.97
2019-02-18T00:58:59.304Z,9.87
2019-02-18T01:01:28.282Z,9.27
2019-02-18T01:03:57.580Z,7.37
2019-02-18T01:06:26.568Z,8.77
2019-02-18T01:08:55.431Z,8.23
2019-02-18T01:11:24.684Z,7.93
2019-02-18T01:13:53.543Z,9.10
2019-02-18T01:16:22.749Z,8.47
2019-02-18T01:18:51.931Z,9.43
2019-02-18T01:21:20.846Z,10.13
2019-02-18T01:23:50.235Z,10.60
2019-02-18T01:26:19.387Z,11.00
2019-02-18T01:28:48.291Z,10.33
2019-02-18T01:31:17.810Z,9.60
2019-02-18T01:33:47.085Z,10.27
2019-02-18T01:36:16.199Z,9.53
2019-02-18T01:38:45.598Z,7.73
2019-02-18T01:41:14.476Z,8.30
2019-02-18T01:43:43.694Z,8.33
2019-02-18T01:46:13.194Z,9.13
2019-02-18T01:48:42.682Z,9.57
2019-02-18T01:51:11.935Z,7.60
2019-02-18T01:53:41.186Z,7.33
2019-02-18T01:56:10.766Z,7.63
2019-02-18T01:58:39.904Z,9.30
2019-02-18T02:01:09.415Z,18.37
2019-02-18T02:03:38.628Z,11.47
2019-02-18T02:06:07.642Z,10.40
2019-02-18T02:08:36.548Z,9.67
2019-02-18T02:11:05.579Z,9.40
2019-02-18T02:13:35.935Z,8.40
2019-02-18T02:16:10.326Z,9.57
2019-02-18T02:18:39.831Z,8.63
2019-02-18T02:21:09.406Z,8.73
2019-02-18T02:23:39.598Z,9.60
2019-02-18T02:26:08.551Z,7.97
2019-02-18T02:28:37.739Z,10.80
2019-02-18T02:31:07.363Z,9.83
2019-02-18T02:33:36.566Z,8.73
2019-02-18T02:36:05.561Z,7.60
2019-02-18T02:38:34.666Z,12.30
2019-02-18T02:41:03.976Z,9.93
2019-02-18T02:43:32.949Z,8.87
2019-02-18T02:46:02.477Z,8.90
2019-02-18T02:48:31.286Z,10.70
2019-02-18T02:51:01.018Z,9.03
2019-02-18T02:53:30.344Z,8.80
2019-02-18T02:55:59.213Z,11.73
2019-02-18T02:58:28.363Z,9.27
2019-02-18T03:00:57.893Z,8.77
2019-02-18T03:03:27.148Z,16.50
2019-02-18T03:05:56.177Z,14.27
2019-02-18T03:08:25.448Z,10.10
2019-02-18T03:10:54.621Z,8.83
2019-02-18T03:13:24.475Z,8.53
2019-02-18T03:15:53.742Z,10.03
2019-02-18T03:18:22.990Z,9.13
2019-02-18T03:20:51.794Z,9.20
2019-02-18T03:23:21.078Z,10.53
2019-02-18T03:25:51.954Z,9.00
2019-02-18T03:28:47.169Z,8.57
2019-02-18T03:31:20.397Z,10.63
2019-02-18T03:33:55.843Z,11.80
2019-02-18T03:36:25.018Z,8.43
2019-02-18T03:38:54.281Z,10.37
2019-02-18T03:41:23.742Z,10.63
2019-02-18T03:43:52.886Z,11.53
2019-02-18T03:46:22.178Z,11.57
2019-02-18T03:48:51.435Z,10.80
2019-02-18T03:51:20.664Z,9.40
2019-02-18T03:53:49.851Z,10.77
2019-02-18T03:56:18.895Z,17.10
2019-02-18T03:58:48.248Z,13.60
2019-02-18T04:01:17.703Z,12.67
2019-02-18T04:03:47.243Z,10.80
2019-02-18T04:06:16.671Z,11.03
2019-02-18T04:08:45.775Z,10.83
2019-02-18T04:11:14.609Z,11.87
2019-02-18T04:13:43.791Z,10.83
2019-02-18T04:16:12.645Z,12.53
2019-02-18T04:18:42.338Z,11.33
2019-02-18T04:21:11.601Z,12.00
2019-02-18T04:23:40.824Z,11.80
2019-02-18T04:26:09.744Z,13.63
2019-02-18T04:28:38.868Z,11.10
2019-02-18T04:31:07.986Z,11.30
2019-02-18T04:33:37.377Z,10.67
2019-02-18T04:36:06.506Z,10.13
2019-02-18T04:38:35.681Z,11.33
2019-02-18T04:41:04.714Z,14.13
2019-02-18T04:43:33.924Z,14.43
2019-02-18T04:46:03.103Z,11.30
2019-02-18T04:48:31.914Z,13.83
2019-02-18T04:51:01.322Z,9.63
2019-02-18T04:53:30.176Z,10.73
2019-02-18T04:55:59.149Z,12.57
2019-02-18T04:58:28.029Z,11.63
2019-02-18T05:00:57.453Z,13.03
2019-02-18T05:03:26.869Z,12.37
2019-02-18T05:05:57.830Z,11.60
2019-02-18T05:08:27.126Z,10.47
2019-02-18T05:10:56.362Z,13.30
2019-02-18T05:13:25.511Z,12.33
2019-02-18T05:15:54.726Z,13.07
2019-02-18T05:18:23.999Z,11.27
2019-02-18T05:20:53.106Z,11.07
2019-02-18T05:23:21.916Z,13.20
2019-02-18T05:25:50.937Z,10.80
2019-02-18T05:28:20.099Z,14.00
2019-02-18T05:30:49.187Z,13.97
2019-02-18T05:33:18.433Z,14.70
2019-02-18T05:35:48.232Z,12.50
2019-02-18T05:38:18.561Z,12.33
2019-02-18T05:40:48.038Z,13.60
2019-02-18T05:43:17.178Z,14.33
2019-02-18T05:45:46.073Z,12.20
2019-02-18T05:48:15.364Z,14.33
2019-02-18T05:50:44.571Z,15.20
2019-02-18T05:53:13.733Z,13.47
2019-02-18T05:55:43.163Z,14.73
2019-02-18T05:58:12.102Z,15.23
2019-02-18T06:00:41.331Z,15.10
2019-02-18T06:03:10.136Z,13.43
2019-02-18T06:05:39.489Z,15.17
2019-02-18T06:08:08.267Z,19.37
2019-02-18T06:10:37.636Z,14.53
2019-02-18T06:13:06.757Z,13.60
2019-02-18T06:15:36.088Z,14.03
2019-02-18T06:18:05.253Z,16.57
2019-02-18T06:20:34.855Z,17.43
2019-02-18T06:23:04.048Z,14.60
2019-02-18T06:25:32.997Z,14.60
2019-02-18T06:28:04.724Z,14.90
2019-02-18T06:30:33.025Z,16.67
2019-02-18T06:33:02.919Z,14.70
2019-02-18T06:35:31.736Z,16.53
2019-02-18T06:38:00.659Z,13.43
2019-02-18T06:40:29.475Z,13.33
2019-02-18T06:42:59.109Z,14.37
2019-02-18T06:45:47.650Z,15.07
2019-02-18T06:48:35.882Z,14.77
2019-02-18T06:51:05.257Z,13.30
2019-02-18T06:53:34.825Z,14.13
2019-02-18T06:56:04.258Z,15.43
2019-02-18T06:58:49.923Z,17.40
2019-02-18T07:01:27.240Z,14.50
2019-02-18T07:04:12.924Z,15.40
2019-02-18T07:06:50.461Z,17.20
2019-02-18T07:09:50.458Z,16.60
2019-02-18T07:12:37.040Z,17.97
2019-02-18T07:15:06.859Z,13.43
2019-02-18T07:17:36.169Z,12.87
2019-02-18T07:20:06.121Z,15.50
2019-02-18T07:22:35.635Z,14.87
2019-02-18T07:25:05.155Z,13.67
2019-02-18T07:27:34.764Z,15.10
2019-02-18T07:30:04.217Z,13.63
2019-02-18T07:32:33.343Z,13.20
2019-02-18T07:35:21.685Z,14.87
2019-02-18T07:37:51.545Z,15.67
2019-02-18T07:40:21.355Z,14.20
2019-02-18T07:42:50.403Z,16.97
2019-02-18T07:45:19.648Z,15.17
2019-02-18T07:47:49.011Z,14.20
2019-02-18T07:50:20.623Z,13.80
2019-02-18T07:52:49.083Z,14.17
2019-02-18T07:55:18.611Z,12.53
2019-02-18T07:57:47.654Z,15.57
2019-02-18T08:00:17.016Z,14.27
2019-02-18T08:02:46.360Z,13.90
2019-02-18T08:05:15.409Z,17.83
2019-02-18T08:07:44.675Z,13.10
2019-02-18T08:10:14.357Z,13.50
2019-02-18T08:12:43.687Z,15.10
2019-02-18T08:15:12.569Z,12.03
2019-02-18T08:17:42.154Z,13.23
2019-02-18T08:20:11.319Z,13.37
2019-02-18T08:22:40.680Z,14.80
2019-02-18T08:25:09.723Z,13.50
2019-02-18T08:27:39.187Z,13.83
2019-02-18T08:30:09.797Z,15.60
2019-02-18T08:32:39.392Z,15.17
2019-02-18T08:35:08.831Z,11.90
2019-02-18T08:37:38.230Z,13.80
2019-02-18T08:40:07.267Z,14.80
2019-02-18T08:42:36.789Z,13.47
2019-02-18T08:45:07.249Z,13.10
2019-02-18T08:47:36.529Z,13.77
2019-02-18T08:50:06.241Z,12.23
2019-02-18T08:52:35.759Z,11.17
2019-02-18T08:55:05.128Z,13.50
2019-02-18T08:57:33.881Z,13.13
2019-02-18T09:00:03.245Z,10.47
2019-02-18T09:02:32.672Z,12.53
2019-02-18T09:05:02.231Z,10.53
2019-02-18T09:07:31.280Z,12.87
2019-02-18T09:10:00.549Z,10.00
2019-02-18T09:12:29.579Z,11.10
2019-02-18T09:14:59.146Z,10.97
2019-02-18T09:17:28.495Z,10.67
2019-02-18T09:19:57.518Z,10.13
2019-02-18T09:22:39.395Z,12.20
2019-02-18T09:25:15.080Z,11.00
2019-02-18T09:27:44.619Z,9.93
2019-02-18T09:30:16.204Z,9.87
2019-02-18T09:32:45.764Z,12.30
2019-02-18T09:35:15.122Z,10.30
2019-02-18T09:37:44.693Z,8.83
2019-02-18T09:40:14.631Z,10.13
2019-02-18T09:42:43.765Z,10.33
2019-02-18T09:45:14.734Z,11.87
2019-02-18T09:47:44.094Z,9.53
2019-02-18T09:50:13.187Z,9.67
2019-02-18T09:52:42.014Z,9.53
2019-02-18T09:55:11.317Z,12.93
2019-02-18T09:57:40.348Z,12.30
2019-02-18T10:00:09.953Z,10.10
2019-02-18T10:02:39.071Z,9.50
2019-02-18T10:05:08.637Z,10.03
2019-02-18T10:07:38.245Z,10.97
2019-02-18T10:10:07.460Z,10.60
2019-02-18T10:12:36.462Z,10.30
2019-02-18T10:15:05.776Z,10.73
2019-02-18T10:17:34.682Z,11.37
2019-02-18T10:20:04.200Z,8.87
2019-02-18T10:22:33.496Z,10.87
2019-02-18T10:25:03.132Z,10.20
2019-02-18T10:27:32.231Z,10.23
2019-02-18T10:30:01.623Z,11.20
2019-02-18T10:32:30.598Z,9.07
2019-02-18T10:35:00.015Z,9.17
2019-02-18T10:37:29.543Z,8.40
2019-02-18T10:39:59.159Z,8.90
2019-02-18T10:42:29.088Z,8.70
2019-02-18T10:44:58.470Z,8.47
2019-02-18T10:47:27.502Z,9.70
2019-02-18T10:49:56.538Z,10.80
2019-02-18T10:52:25.353Z,11.47
2019-02-18T10:54:54.823Z,8.20
2019-02-18T10:57:24.302Z,9.37
2019-02-18T10:59:54.271Z,12.10
2019-02-18T11:02:23.792Z,10.93
2019-02-18T11:04:52.852Z,10.17
2019-02-18T11:07:22.124Z,9.37
2019-02-18T11:09:51.450Z,11.00
2019-02-18T11:12:20.220Z,9.00
2019-02-18T11:14:49.291Z,7.70
2019-02-18T11:17:18.834Z,8.33
2019-02-18T11:19:47.893Z,7.27
2019-02-18T11:22:17.440Z,9.63
2019-02-18T11:24:46.816Z,10.13
2019-02-18T11:27:15.711Z,10.43
2019-02-18T11:29:45.339Z,8.67
2019-02-18T11:32:14.380Z,8.07
2019-02-18T11:34:43.938Z,9.27
2019-02-18T11:37:13.921Z,10.57
2019-02-18T11:39:43.023Z,10.30
2019-02-18T11:42:11.798Z,8.93
2019-02-18T11:44:40.856Z,9.57
2019-02-18T11:47:10.251Z,8.33
2019-02-18T11:49:39.805Z,8.20
2019-02-18T11:52:08.948Z,8.87
2019-02-18T11:54:37.928Z,7.83
2019-02-18T11:57:07.891Z,9.63
2019-02-18T11:59:37.936Z,10.57
2019-02-18T12:02:07.544Z,8.70
2019-02-18T12:04:36.954Z,7.47
2019-02-18T12:07:06.220Z,10.80
2019-02-18T12:09:35.512Z,8.27
2019-02-18T12:12:04.660Z,11.33
2019-02-18T12:14:34.132Z,8.93
2019-02-18T12:17:02.991Z,8.20
2019-02-18T12:19:32.289Z,9.40
2019-02-18T12:22:01.570Z,8.13
2019-02-18T12:24:31.297Z,8.43
2019-02-18T12:27:00.575Z,10.07
2019-02-18T12:29:30.172Z,10.13
2019-02-18T12:31:58.960Z,9.27
2019-02-18T12:34:28.249Z,7.70
2019-02-18T12:36:58.696Z,8.03
2019-02-18T12:39:28.248Z,9.23
2019-02-18T12:41:57.555Z,10.50
2019-02-18T12:44:27.539Z,7.83
2019-02-18T12:46:56.980Z,9.27
2019-02-18T12:49:26.838Z,9.23
2019-02-18T12:51:56.460Z,9.30
2019-02-18T12:54:26.140Z,7.73
2019-02-18T12:56:55.360Z,7.23
2019-02-18T12:59:24.738Z,7.87
2019-02-18T13:01:54.332Z,8.17
2019-02-18T13:04:23.343Z,8.30
2019-02-18T13:06:53.099Z,9.20
2019-02-18T13:09:22.640Z,9.10
2019-02-18T13:11:58.945Z,8.60
2019-02-18T13:14:23.130Z,8.17
2019-02-18T13:16:52.336Z,7.00
2019-02-18T13:19:21.463Z,10.63
2019-02-18T13:21:50.908Z,10.73
2019-02-18T13:24:20.568Z,9.70
2019-02-18T13:26:49.839Z,9.50
2019-02-18T13:29:19.641Z,10.33
2019-02-18T13:31:48.928Z,6.63
2019-02-18T13:34:18.204Z,8.10
2019-02-18T13:36:47.263Z,7.87
2019-02-18T13:39:16.565Z,6.50
2019-02-18T13:41:45.351Z,8.43
2019-02-18T13:44:14.763Z,7.67
2019-02-18T13:46:44.319Z,7.93
2019-02-18T13:49:13.379Z,8.73
2019-02-18T13:51:42.998Z,9.77
2019-02-18T13:54:12.399Z,8.00
2019-02-18T13:56:41.468Z,9.17
2019-02-18T13:59:10.577Z,6.87
2019-02-18T14:01:39.779Z,7.23
2019-02-18T14:04:09.436Z,7.93
2019-02-18T14:06:39.228Z,7.73
2019-02-18T14:09:09.748Z,6.60
2019-02-18T14:11:39.132Z,8.07
2019-02-18T14:14:08.792Z,8.50
2019-02-18T14:16:37.848Z,8.67
2019-02-18T14:19:06.743Z,8.00
2019-02-18T14:21:36.150Z,6.73
2019-02-18T14:24:06.328Z,6.73
2019-02-18T14:26:35.631Z,7.50
2019-02-18T14:29:05.448Z,8.53
2019-02-18T14:31:34.834Z,9.07
2019-02-18T14:34:04.637Z,7.40
2019-02-18T14:36:34.245Z,7.93
2019-02-18T14:39:05.060Z,9.03
2019-02-18T14:41:35.104Z,11.70
2019-02-18T14:44:04.291Z,8.57
2019-02-18T14:46:34.292Z,8.87
2019-02-18T14:49:03.460Z,10.50
2019-02-18T14:51:32.839Z,8.87
2019-02-18T14:54:02.242Z,10.53
2019-02-18T14:56:31.137Z,10.73
2019-02-18T14:59:00.010Z,6.97
2019-02-18T15:01:29.593Z,8.97
2019-02-18T15:03:59.204Z,7.47
2019-02-18T15:06:28.033Z,10.40
2019-02-18T15:08:57.611Z,7.43
2019-02-18T15:11:26.911Z,10.63
2019-02-18T15:13:56.520Z,10.13
2019-02-18T15:16:25.834Z,7.47
2019-02-18T15:18:55.171Z,8.83
2019-02-18T15:21:24.069Z,9.37
2019-02-18T15:23:53.659Z,7.80
2019-02-18T15:26:24.374Z,8.40
2019-02-18T15:28:53.930Z,9.83
2019-02-18T15:31:23.148Z,10.57
2019-02-18T15:33:52.809Z,9.53
2019-02-18T15:36:22.567Z,11.27
2019-02-18T15:38:52.204Z,10.27
2019-02-18T15:41:21.494Z,7.97
2019-02-18T15:43:51.323Z,8.80
2019-02-18T15:46:20.450Z,11.87
2019-02-18T15:48:50.044Z,10.33
2019-02-18T15:51:19.584Z,12.43
2019-02-18T15:53:48.467Z,7.63
2019-02-18T15:56:17.684Z,9.67
2019-02-18T15:58:46.975Z,10.80
2019-02-18T16:01:16.366Z,12.87
2019-02-18T16:03:45.747Z,9.60
2019-02-18T16:06:15.231Z,12.50
2019-02-18T16:08:44.688Z,12.27
2019-02-18T16:11:13.961Z,13.97
2019-02-18T16:13:43.275Z,14.60
2019-02-18T16:16:12.333Z,13.30
2019-02-18T16:18:41.517Z,17.33
2019-02-18T16:21:10.874Z,15.60
2019-02-18T16:23:40.091Z,14.30
2019-02-18T16:26:08.936Z,16.40
2019-02-18T16:28:38.219Z,13.23
2019-02-18T16:31:07.560Z,13.67
2019-02-18T16:33:36.977Z,16.47
2019-02-18T16:36:06.333Z,12.83
2019-02-18T16:38:35.600Z,23.33
2019-02-18T16:41:05.175Z,14.93
2019-02-18T16:43:34.747Z,15.67
2019-02-18T16:46:04.192Z,13.37
2019-02-18T16:48:34.263Z,15.83
2019-02-18T16:51:03.177Z,15.47
2019-02-18T16:53:32.695Z,13.10
2019-02-18T16:56:01.906Z,15.43
2019-02-18T16:58:31.161Z,15.50
2019-02-18T17:01:00.671Z,10.53
2019-02-18T17:03:30.039Z,13.10
2019-02-18T17:05:59.832Z,12.73
2019-02-18T17:08:29.447Z,13.93
2019-02-18T17:10:58.702Z,15.27
2019-02-18T17:13:28.135Z,13.13
2019-02-18T17:15:57.812Z,13.43
2019-02-18T17:18:27.427Z,14.87
2019-02-18T17:20:56.558Z,15.97
2019-02-18T17:23:26.189Z,16.17
2019-02-18T17:25:55.430Z,14.73
2019-02-18T17:28:24.810Z,12.97
2019-02-18T17:30:54.168Z,11.83
2019-02-18T17:33:24.285Z,8.00
2019-02-18T17:35:54.351Z,7.23
2019-02-18T17:38:23.514Z,10.37
2019-02-18T17:40:53.196Z,11.23
2019-02-18T17:43:22.606Z,8.80
2019-02-18T17:45:51.491Z,8.90
2019-02-18T17:48:20.615Z,9.73
2019-02-18T17:50:50.335Z,8.87
2019-02-18T17:53:19.447Z,9.57
2019-02-18T17:55:48.864Z,7.53
2019-02-18T17:58:18.210Z,11.13
2019-02-18T18:00:50.179Z,7.63
2019-02-18T18:03:19.647Z,6.93
2019-02-18T18:05:49.155Z,8.87
2019-02-18T18:08:18.510Z,7.27
2019-02-18T18:10:47.626Z,6.57
2019-02-18T18:13:24.751Z,8.07
2019-02-18T18:15:48.030Z,6.77
2019-02-18T18:18:17.807Z,8.50
2019-02-18T18:20:47.094Z,6.73
2019-02-18T18:23:16.555Z,5.93
2019-02-18T18:25:45.934Z,5.43
2019-02-18T18:28:15.318Z,4.90
2019-02-18T18:30:45.162Z,8.43
2019-02-18T18:33:14.874Z,8.83
2019-02-18T18:35:44.291Z,6.60
2019-02-18T18:38:13.708Z,7.80
2019-02-18T18:40:43.523Z,12.03
2019-02-18T18:43:13.160Z,10.07
2019-02-18T18:45:42.715Z,12.47
2019-02-18T18:48:12.453Z,10.53
2019-02-18T18:50:41.603Z,12.43
2019-02-18T18:53:10.779Z,12.50
2019-02-18T18:55:40.236Z,10.20
2019-02-18T18:58:10.188Z,12.07
2019-02-18T19:00:39.103Z,9.63
2019-02-18T19:03:08.639Z,10.90
2019-02-18T19:05:38.007Z,12.73
2019-02-18T19:08:07.969Z,15.17
2019-02-18T19:10:37.454Z,13.90
2019-02-18T19:13:07.131Z,14.07
2019-02-18T19:15:37.191Z,12.23
2019-02-18T19:18:07.274Z,10.93
2019-02-18T19:20:36.479Z,9.83
2019-02-18T19:23:05.762Z,11.43
2019-02-18T19:25:34.995Z,8.10
2019-02-18T19:28:04.335Z,11.50
2019-02-18T19:30:33.946Z,11.00
2019-02-18T19:33:03.026Z,16.97
2019-02-18T19:35:32.368Z,23.27
2019-02-18T19:38:01.733Z,14.03
2019-02-18T19:40:31.478Z,10.37
2019-02-18T19:43:02.486Z,15.50
2019-02-18T19:45:32.430Z,11.23
2019-02-18T19:48:01.898Z,11.20
2019-02-18T19:50:31.170Z,10.67
2019-02-18T19:53:00.371Z,11.17
2019-02-18T19:55:29.991Z,9.00
2019-02-18T19:58:00.182Z,10.77
2019-02-18T20:00:29.328Z,9.03
2019-02-18T20:02:58.750Z,11.83
2019-02-18T20:05:28.391Z,9.70
2019-02-18T20:07:57.907Z,7.70
2019-02-18T20:10:27.095Z,9.17
2019-02-18T20:12:56.374Z,9.10
2019-02-18T20:15:25.862Z,10.07
2019-02-18T20:17:55.801Z,8.10
2019-02-18T20:20:25.301Z,8.33
2019-02-18T20:22:54.482Z,11.07
2019-02-18T20:25:23.691Z,9.40
2019-02-18T20:27:52.663Z,10.07
2019-02-18T20:30:22.107Z,9.23
2019-02-18T20:32:51.834Z,9.80
2019-02-18T20:35:21.467Z,9.33
2019-02-18T20:37:50.835Z,8.67
2019-02-18T20:40:20.224Z,8.10
2019-02-18T20:42:49.890Z,9.13
2019-02-18T20:45:19.350Z,10.57
2019-02-18T20:47:49.307Z,9.23
2019-02-18T20:50:18.676Z,8.37
2019-02-18T20:52:48.398Z,8.57
2019-02-18T20:55:18.290Z,8.73
2019-02-18T20:57:48.192Z,10.87
2019-02-18T21:00:18.794Z,10.20
2019-02-18T21:02:48.237Z,9.77
2019-02-18T21:05:17.550Z,10.03
2019-02-18T21:07:46.852Z,8.33
2019-02-18T21:10:16.671Z,8.00
2019-02-18T21:12:46.140Z,9.57
2019-02-18T21:15:15.927Z,9.00
2019-02-18T21:17:45.188Z,7.93
2019-02-18T21:20:14.951Z,9.07
2019-02-18T21:22:44.997Z,8.80
2019-02-18T21:25:14.769Z,9.57
2019-02-18T21:27:43.744Z,7.80
2019-02-18T21:30:13.496Z,8.33
2019-02-18T21:32:43.032Z,8.93
2019-02-18T21:35:12.579Z,8.93
2019-02-18T21:37:42.877Z,8.63
2019-02-18T21:40:12.300Z,9.80
2019-02-18T21:42:41.742Z,10.43
2019-02-18T21:45:10.926Z,9.10
2019-02-18T21:47:40.629Z,9.17
2019-02-18T21:50:10.618Z,9.07
2019-02-18T21:52:40.284Z,12.57
2019-02-18T21:55:09.567Z,21.83
2019-02-18T21:57:38.851Z,10.03
2019-02-18T22:00:15.543Z,9.10
2019-02-18T22:02:45.510Z,9.30
2019-02-18T22:05:15.231Z,9.23
2019-02-18T22:07:44.691Z,10.90
2019-02-18T22:10:14.495Z,9.57
2019-02-18T22:12:43.791Z,7.47
2019-02-18T22:15:13.250Z,8.37
2019-02-18T22:17:42.847Z,10.80
2019-02-18T22:20:12.110Z,8.20
2019-02-18T22:22:42.319Z,10.23
2019-02-18T22:25:11.855Z,9.37
2019-02-18T22:27:41.071Z,11.27
2019-02-18T22:30:10.940Z,9.73
2019-02-18T22:32:40.831Z,13.47
2019-02-18T22:35:10.119Z,8.63
2019-02-18T22:37:39.386Z,10.93
2019-02-18T22:40:08.786Z,12.07
2019-02-18T22:42:38.061Z,10.63
2019-02-18T22:45:07.315Z,12.43
2019-02-18T22:47:36.939Z,9.10
2019-02-18T22:50:06.875Z,8.80
2019-02-18T22:52:36.539Z,7.87
2019-02-18T22:55:06.412Z,9.77
2019-02-18T22:57:35.603Z,8.93
2019-02-18T23:00:08.319Z,9.43
2019-02-18T23:02:37.810Z,8.53
2019-02-18T23:05:06.866Z,10.03
2019-02-18T23:07:36.523Z,8.77
2019-02-18T23:10:05.879Z,8.97
2019-02-18T23:12:35.307Z,9.67
2019-02-18T23:15:04.407Z,7.73
2019-02-18T23:17:33.690Z,9.97
2019-02-18T23:20:03.292Z,12.33
2019-02-18T23:22:32.786Z,11.17
2019-02-18T23:25:01.947Z,12.17
2019-02-18T23:27:31.639Z,10.77
2019-02-18T23:30:01.343Z,12.73
2019-02-18T23:32:30.867Z,8.43
2019-02-18T23:34:59.821Z,10.07
2019-02-18T23:37:29.786Z,8.50
2019-02-18T23:39:59.539Z,11.00
2019-02-18T23:42:28.950Z,9.17
2019-02-18T23:44:59.499Z,8.43
2019-02-18T23:47:29.141Z,12.60
2019-02-18T23:49:58.953Z,12.47
2019-02-18T23:52:28.107Z,13.87
2019-02-18T23:54:57.051Z,14.40
2019-02-18T23:57:26.530Z,11.50
2019-02-18T23:59:56.850Z,9.23
